createdAt,value
2023-04-27T00:00:39.630Z,53.30
2023-04-27T00:02:42.136Z,53.20
2023-04-27T00:04:44.672Z,53.30
2023-04-27T00:06:46.888Z,53.30
2023-04-27T00:08:48.548Z,53.40
2023-04-27T00:10:50.390Z,53.40
2023-04-27T00:12:52.016Z,53.60
2023-04-27T00:14:53.688Z,53.50
2023-04-27T00:16:55.764Z,53.50
2023-04-27T00:18:57.620Z,53.50
2023-04-27T00:20:59.354Z,53.40
2023-04-27T00:23:01.032Z,53.40
2023-04-27T00:25:02.688Z,53.50
2023-04-27T00:27:04.460Z,53.40
2023-04-27T00:29:06.216Z,53.50
2023-04-27T00:31:07.875Z,53.50
2023-04-27T00:33:09.491Z,53.50
2023-04-27T00:35:11.485Z,53.50
2023-04-27T00:37:13.103Z,53.60
2023-04-27T00:39:14.891Z,53.50
2023-04-27T00:41:16.726Z,53.50
2023-04-27T00:43:18.380Z,53.70
2023-04-27T00:45:20.061Z,53.70
2023-04-27T00:47:21.853Z,53.60
2023-04-27T00:49:23.787Z,53.70
2023-04-27T00:51:28.097Z,53.60
2023-04-27T00:53:31.426Z,53.70
2023-04-27T00:55:33.154Z,53.70
2023-04-27T00:57:34.875Z,53.60
2023-04-27T00:59:36.553Z,53.60
2023-04-27T01:01:38.215Z,53.70
2023-04-27T01:03:40.146Z,53.80
2023-04-27T01:05:41.885Z,53.70
2023-04-27T01:07:44.032Z,53.70
2023-04-27T01:09:46.651Z,53.60
2023-04-27T01:11:48.316Z,53.60
2023-04-27T01:13:50.035Z,53.80
2023-04-27T01:15:51.736Z,53.80
2023-04-27T01:17:59.831Z,53.70
2023-04-27T01:20:03.498Z,53.70
2023-04-27T01:22:05.137Z,53.70
2023-04-27T01:24:07.285Z,53.60
2023-04-27T01:26:11.816Z,53.70
2023-04-27T01:28:13.530Z,53.80
2023-04-27T01:30:15.787Z,53.60
2023-04-27T01:32:17.436Z,53.70
2023-04-27T01:34:19.107Z,53.90
2023-04-27T01:36:22.598Z,53.80
2023-04-27T01:38:24.389Z,53.80
2023-04-27T01:40:26.134Z,53.70
2023-04-27T01:42:28.486Z,53.80
2023-04-27T01:44:30.322Z,53.80
2023-04-27T01:46:32.057Z,53.80
2023-04-27T01:48:34.272Z,53.80
2023-04-27T01:50:36.082Z,53.70
2023-04-27T01:52:37.791Z,53.70
2023-04-27T01:56:58.670Z,53.80
2023-04-27T01:59:00.354Z,53.80
2023-04-27T02:01:01.986Z,53.90
2023-04-27T02:03:04.245Z,53.90
2023-04-27T02:05:06.589Z,53.90
2023-04-27T02:07:08.319Z,54.00
2023-04-27T02:11:29.433Z,53.90
2023-04-27T02:13:31.033Z,54.20
2023-04-27T02:15:32.765Z,54.10
2023-04-27T02:17:35.156Z,54.10
2023-04-27T02:21:55.946Z,54.30
2023-04-27T02:32:32.855Z,54.70
2023-04-27T02:35:32.594Z,54.70
2023-04-27T02:38:36.822Z,55.00
2023-04-27T02:41:35.501Z,55.00
2023-04-27T02:44:34.561Z,54.70
2023-04-27T02:57:22.002Z,55.30
2023-04-27T03:00:20.363Z,56.00
2023-04-27T03:03:18.442Z,55.60
2023-04-27T03:12:50.865Z,55.40
2023-04-27T03:15:49.031Z,55.30
2023-04-27T03:20:37.437Z,55.50
2023-04-27T03:22:39.202Z,55.50
2023-04-27T03:24:41.031Z,55.40
2023-04-27T03:26:44.480Z,55.30
2023-04-27T03:28:46.260Z,55.30
2023-04-27T03:30:47.932Z,55.30
2023-04-27T03:32:49.710Z,55.40
2023-04-27T03:34:52.297Z,55.30
2023-04-27T03:37:12.989Z,55.50
2023-04-27T03:39:14.827Z,55.40
2023-04-27T03:41:34.967Z,55.60
2023-04-27T03:43:55.668Z,55.50
2023-04-27T03:46:35.221Z,55.60
2023-04-27T03:49:14.767Z,55.50
2023-04-27T03:52:12.831Z,55.50
2023-04-27T03:54:52.255Z,55.70
2023-04-27T03:57:12.980Z,55.60
2023-04-27T03:59:33.539Z,55.50
2023-04-27T04:01:35.213Z,55.50
2023-04-27T04:03:55.727Z,55.40
2023-04-27T04:06:35.003Z,55.50
2023-04-27T04:09:14.207Z,55.50
2023-04-27T04:11:34.811Z,55.50
2023-04-27T04:13:39.979Z,55.60
2023-04-27T04:16:19.050Z,55.70
2023-04-27T04:18:57.999Z,55.80
2023-04-27T04:21:55.722Z,55.60
2023-04-27T04:23:57.379Z,55.90
2023-04-27T04:26:17.618Z,56.10
2023-04-27T04:28:37.967Z,56.60
2023-04-27T04:31:35.991Z,56.00
2023-04-27T04:34:34.365Z,56.00
2023-04-27T04:37:13.367Z,55.80
2023-04-27T04:39:33.865Z,55.80
2023-04-27T04:42:31.731Z,55.80
2023-04-27T04:44:52.544Z,55.90
2023-04-27T04:47:35.106Z,55.70
2023-04-27T04:49:36.887Z,55.90
2023-04-27T04:52:00.785Z,55.70
2023-04-27T04:54:20.869Z,55.70
2023-04-27T04:56:59.898Z,55.70
2023-04-27T04:59:39.024Z,55.70
2023-04-27T05:01:59.116Z,56.70
2023-04-27T05:04:20.020Z,55.80
2023-04-27T05:06:59.239Z,56.00
2023-04-27T05:09:19.431Z,56.00
2023-04-27T05:11:39.482Z,56.80
2023-04-27T05:14:18.469Z,56.40
2023-04-27T05:16:39.057Z,56.20
2023-04-27T05:18:59.738Z,55.90
2023-04-27T05:21:57.654Z,55.90
2023-04-27T05:24:36.819Z,56.00
2023-04-27T05:27:15.398Z,56.00
2023-04-27T05:29:54.547Z,56.70
2023-04-27T05:32:33.761Z,56.00
2023-04-27T05:35:31.799Z,56.10
2023-04-27T05:37:33.428Z,56.90
2023-04-27T05:39:53.574Z,56.40
2023-04-27T05:42:51.561Z,56.50
2023-04-27T05:45:11.423Z,56.30
2023-04-27T05:47:31.586Z,56.10
2023-04-27T05:50:29.581Z,56.10
2023-04-27T05:52:49.980Z,56.20
2023-04-27T05:55:29.470Z,56.20
2023-04-27T05:58:00.600Z,56.10
2023-04-27T06:00:27.304Z,56.00
2023-04-27T06:03:06.815Z,56.00
2023-04-27T06:06:08.787Z,56.00
2023-04-27T06:08:49.446Z,55.80
2023-04-27T06:11:28.789Z,56.40
2023-04-27T06:14:07.816Z,55.90
2023-04-27T06:16:47.000Z,56.50
2023-04-27T06:19:08.503Z,56.60
2023-04-27T06:21:31.991Z,56.00
2023-04-27T06:23:33.638Z,56.00
2023-04-27T06:25:54.261Z,56.00
2023-04-27T06:27:56.746Z,56.10
2023-04-27T06:30:17.387Z,56.00
2023-04-27T06:33:15.514Z,56.00
2023-04-27T06:36:13.566Z,56.00
2023-04-27T06:38:15.223Z,55.90
2023-04-27T06:40:35.442Z,55.90
2023-04-27T06:43:14.814Z,55.80
2023-04-27T06:45:54.080Z,55.90
2023-04-27T06:48:33.000Z,56.40
2023-04-27T06:51:12.782Z,56.50
2023-04-27T06:53:14.537Z,55.80
2023-04-27T06:55:34.919Z,55.60
2023-04-27T06:57:55.247Z,55.50
2023-04-27T07:00:34.681Z,55.50
2023-04-27T07:03:32.947Z,55.40
2023-04-27T07:05:53.450Z,55.20
2023-04-27T07:08:13.945Z,55.10
2023-04-27T07:10:34.073Z,55.10
2023-04-27T07:13:14.380Z,55.60
2023-04-27T07:15:53.359Z,54.80
2023-04-27T07:18:13.945Z,54.80
2023-04-27T07:20:52.974Z,54.90
2023-04-27T07:23:13.198Z,54.80
2023-04-27T07:25:52.475Z,54.90
2023-04-27T07:28:31.816Z,54.80
2023-04-27T07:30:36.381Z,54.80
2023-04-27T07:33:15.753Z,54.70
2023-04-27T07:35:35.941Z,54.60
2023-04-27T07:38:34.054Z,54.50
2023-04-27T07:41:14.325Z,54.40
2023-04-27T07:43:35.137Z,54.40
2023-04-27T07:46:14.706Z,54.20
2023-04-27T07:48:54.150Z,54.30
2023-04-27T07:51:14.693Z,54.10
2023-04-27T07:53:53.651Z,54.00
2023-04-27T07:56:13.855Z,54.00
2023-04-27T07:59:12.215Z,54.60
2023-04-27T08:01:32.593Z,54.20
2023-04-27T08:04:11.883Z,53.90
2023-04-27T08:06:51.555Z,53.90
2023-04-27T08:09:31.061Z,54.60
2023-04-27T08:12:10.169Z,54.60
2023-04-27T08:14:30.441Z,53.80
2023-04-27T08:17:09.920Z,53.80
2023-04-27T08:19:48.763Z,53.80
2023-04-27T08:22:09.119Z,53.70
2023-04-27T08:24:48.147Z,53.70
2023-04-27T08:27:08.480Z,53.60
2023-04-27T08:30:06.259Z,53.40
2023-04-27T08:32:27.030Z,53.30
2023-04-27T08:34:29.023Z,53.30
2023-04-27T08:37:08.122Z,53.30
2023-04-27T08:39:47.496Z,53.40
2023-04-27T08:42:07.924Z,53.30
2023-04-27T08:44:28.302Z,53.30
2023-04-27T08:47:07.467Z,53.30
2023-04-27T08:49:28.048Z,54.00
2023-04-27T08:52:06.939Z,53.40
2023-04-27T08:54:08.801Z,53.30
2023-04-27T08:56:29.676Z,53.30
2023-04-27T08:59:27.436Z,53.20
2023-04-27T09:01:49.183Z,53.20
2023-04-27T09:04:48.196Z,53.80
2023-04-27T09:07:08.560Z,53.10
2023-04-27T09:09:11.371Z,52.90
2023-04-27T09:11:33.061Z,53.00
2023-04-27T09:13:53.532Z,52.80
2023-04-27T09:16:33.150Z,52.70
2023-04-27T09:19:12.405Z,52.90
2023-04-27T09:21:40.207Z,52.80
2023-04-27T09:24:38.387Z,52.80
2023-04-27T09:27:00.691Z,52.90
2023-04-27T09:29:58.735Z,53.00
2023-04-27T09:32:38.015Z,52.90
2023-04-27T09:35:17.493Z,52.80
2023-04-27T09:37:37.831Z,52.70
2023-04-27T09:40:17.148Z,52.60
2023-04-27T09:42:56.222Z,52.20
2023-04-27T09:45:35.429Z,52.40
2023-04-27T09:48:33.358Z,52.80
2023-04-27T09:51:12.850Z,52.30
2023-04-27T09:54:11.027Z,52.50
2023-04-27T09:56:50.056Z,52.30
2023-04-27T09:59:13.851Z,52.30
2023-04-27T10:02:20.969Z,52.10
2023-04-27T10:05:03.872Z,52.20
2023-04-27T10:08:01.893Z,52.00
2023-04-27T10:10:22.524Z,51.90
2023-04-27T10:13:01.562Z,52.00
2023-04-27T10:15:26.105Z,52.30
2023-04-27T10:18:09.568Z,52.30
2023-04-27T10:20:31.159Z,52.20
2023-04-27T10:23:10.423Z,52.20
2023-04-27T10:26:08.543Z,52.60
2023-04-27T10:28:47.923Z,52.30
2023-04-27T10:30:50.016Z,52.30
2023-04-27T10:33:10.936Z,52.30
2023-04-27T10:35:50.080Z,52.40
2023-04-27T10:38:11.257Z,51.80
2023-04-27T10:40:19.643Z,52.30
2023-04-27T10:42:28.663Z,51.90
2023-04-27T10:44:31.583Z,51.40
2023-04-27T10:47:11.701Z,51.60
2023-04-27T10:49:33.234Z,51.50
2023-04-27T10:52:31.160Z,51.60
2023-04-27T10:54:32.973Z,51.70
2023-04-27T10:57:12.615Z,51.40
2023-04-27T10:59:33.260Z,51.40
2023-04-27T11:02:31.636Z,51.20
2023-04-27T11:05:11.039Z,51.20
2023-04-27T11:07:49.667Z,51.20
2023-04-27T11:09:51.344Z,51.20
2023-04-27T11:12:31.244Z,51.10
2023-04-27T11:15:10.455Z,51.10
2023-04-27T11:17:49.721Z,51.10
2023-04-27T11:20:29.208Z,51.00
2023-04-27T11:23:08.885Z,50.80
2023-04-27T11:25:29.840Z,50.70
2023-04-27T11:28:09.180Z,50.30
2023-04-27T11:30:48.210Z,50.50
2023-04-27T11:33:46.464Z,51.20
2023-04-27T11:36:16.732Z,50.90
2023-04-27T11:38:36.896Z,51.50
2023-04-27T11:41:01.443Z,50.80
2023-04-27T11:43:44.238Z,51.00
2023-04-27T11:46:04.569Z,51.20
2023-04-27T11:48:25.188Z,50.80
2023-04-27T11:51:04.388Z,50.50
2023-04-27T11:53:50.683Z,50.40
2023-04-27T11:56:29.832Z,51.40
2023-04-27T11:58:38.464Z,51.10
2023-04-27T12:00:58.788Z,50.90
2023-04-27T12:03:00.913Z,50.40
2023-04-27T12:05:21.578Z,50.40
2023-04-27T12:08:01.401Z,50.30
2023-04-27T12:10:03.062Z,49.70
2023-04-27T12:13:01.013Z,49.90
2023-04-27T12:16:00.922Z,49.50
2023-04-27T12:18:39.986Z,49.80
2023-04-27T12:21:19.050Z,49.10
2023-04-27T12:23:39.287Z,49.10
2023-04-27T12:25:59.799Z,48.60
2023-04-27T12:28:39.144Z,49.10
2023-04-27T12:31:18.483Z,48.70
2023-04-27T12:33:20.232Z,48.80
2023-04-27T12:35:22.080Z,49.00
2023-04-27T12:38:20.301Z,48.40
2023-04-27T12:40:40.471Z,48.60
2023-04-27T12:43:19.749Z,48.50
2023-04-27T12:45:40.054Z,48.30
2023-04-27T12:48:19.228Z,48.40
2023-04-27T12:50:58.652Z,48.00
2023-04-27T12:53:18.879Z,47.60
2023-04-27T12:55:39.516Z,46.60
2023-04-27T12:58:18.548Z,47.50
2023-04-27T13:00:57.611Z,47.70
2023-04-27T13:02:59.428Z,47.30
2023-04-27T13:05:38.920Z,47.50
2023-04-27T13:08:37.171Z,47.80
2023-04-27T13:10:38.940Z,48.00
2023-04-27T13:12:59.898Z,48.40
2023-04-27T13:15:39.544Z,48.30
2023-04-27T13:18:18.416Z,47.50
2023-04-27T13:20:57.672Z,47.20
2023-04-27T13:23:17.914Z,48.00
2023-04-27T13:25:38.401Z,47.40
2023-04-27T13:27:58.910Z,47.40
2023-04-27T13:30:19.419Z,47.40
2023-04-27T13:33:10.508Z,47.30
2023-04-27T13:35:57.699Z,47.00
2023-04-27T13:38:18.171Z,46.80
2023-04-27T13:40:57.075Z,45.80
2023-04-27T13:43:17.270Z,46.30
2023-04-27T13:45:38.131Z,44.70
2023-04-27T13:48:35.722Z,46.30
2023-04-27T13:51:15.056Z,46.50
2023-04-27T13:53:35.777Z,46.70
2023-04-27T13:55:56.906Z,46.40
2023-04-27T13:58:17.530Z,46.20
2023-04-27T14:00:37.965Z,46.70
2023-04-27T14:02:58.787Z,46.50
2023-04-27T14:05:19.575Z,46.60
2023-04-27T14:07:40.140Z,45.50
2023-04-27T14:10:38.448Z,46.00
2023-04-27T14:13:17.470Z,46.00
2023-04-27T14:15:37.621Z,46.00
2023-04-27T14:18:16.890Z,44.90
2023-04-27T14:20:38.220Z,45.20
2023-04-27T14:23:19.649Z,45.30
2023-04-27T14:26:17.432Z,44.50
2023-04-27T14:28:58.590Z,44.50
2023-04-27T14:31:00.662Z,44.90
2023-04-27T14:33:02.688Z,44.40
2023-04-27T14:35:41.887Z,44.50
2023-04-27T14:37:43.564Z,45.50
2023-04-27T14:40:22.137Z,45.50
2023-04-27T14:43:20.149Z,45.20
2023-04-27T14:45:23.647Z,44.70
2023-04-27T14:48:03.763Z,44.70
2023-04-27T14:50:43.238Z,44.20
2023-04-27T14:53:03.504Z,44.20
2023-04-27T14:55:24.374Z,43.70
2023-04-27T14:57:44.814Z,44.10
2023-04-27T14:59:46.439Z,43.50
2023-04-27T15:02:25.777Z,44.30
2023-04-27T15:05:04.878Z,43.50
2023-04-27T15:07:43.736Z,44.50
2023-04-27T15:10:03.944Z,44.90
2023-04-27T15:12:24.321Z,44.20
2023-04-27T15:15:03.428Z,43.20
2023-04-27T15:17:24.140Z,43.80
2023-04-27T15:19:26.080Z,42.90
2023-04-27T15:22:24.196Z,43.50
2023-04-27T15:24:44.735Z,43.40
2023-04-27T15:27:24.188Z,43.30
2023-04-27T15:29:44.695Z,42.80
2023-04-27T15:32:04.983Z,43.30
2023-04-27T15:34:25.481Z,43.30
2023-04-27T15:36:46.371Z,43.40
2023-04-27T15:39:25.478Z,43.50
2023-04-27T15:41:45.910Z,43.90
2023-04-27T15:44:43.542Z,43.10
2023-04-27T15:47:22.850Z,43.30
2023-04-27T15:50:02.325Z,43.10
2023-04-27T15:52:22.721Z,42.60
2023-04-27T15:55:04.133Z,42.80
2023-04-27T15:57:43.085Z,43.30
2023-04-27T16:00:22.905Z,43.00
2023-04-27T16:03:02.310Z,42.30
2023-04-27T16:05:42.135Z,42.80
2023-04-27T16:08:22.406Z,42.10
2023-04-27T16:11:01.784Z,41.90
2023-04-27T16:13:22.869Z,42.30
2023-04-27T16:16:01.970Z,42.50
2023-04-27T16:18:41.203Z,42.40
2023-04-27T16:21:01.611Z,42.30
2023-04-27T16:23:03.355Z,41.90
2023-04-27T16:25:42.257Z,41.50
2023-04-27T16:28:02.939Z,41.70
2023-04-27T16:30:24.184Z,40.60
2023-04-27T16:33:03.063Z,41.40
2023-04-27T16:35:23.439Z,40.80
2023-04-27T16:37:25.301Z,40.80
2023-04-27T16:39:46.442Z,40.80
2023-04-27T16:42:07.251Z,41.00
2023-04-27T16:45:05.258Z,41.40
2023-04-27T16:47:44.470Z,41.30
2023-04-27T16:50:04.557Z,42.20
2023-04-27T16:52:06.219Z,41.00
2023-04-27T16:54:45.477Z,42.30
2023-04-27T16:57:24.670Z,41.70
2023-04-27T17:00:06.150Z,41.30
2023-04-27T17:02:26.745Z,40.80
2023-04-27T17:05:06.347Z,41.20
2023-04-27T17:07:45.604Z,41.20
2023-04-27T17:10:09.006Z,41.40
2023-04-27T17:12:29.413Z,41.90
2023-04-27T17:15:08.405Z,41.80
2023-04-27T17:17:49.833Z,42.00
2023-04-27T17:20:10.433Z,42.20
2023-04-27T17:22:13.221Z,42.20
2023-04-27T17:25:11.948Z,42.40
2023-04-27T17:27:51.167Z,43.40
2023-04-27T17:30:49.568Z,42.90
2023-04-27T17:33:10.283Z,43.10
2023-04-27T17:35:49.447Z,43.20
2023-04-27T17:38:28.501Z,43.50
2023-04-27T17:40:48.854Z,44.60
2023-04-27T17:43:27.621Z,44.20
2023-04-27T17:46:07.086Z,44.90
2023-04-27T17:48:27.590Z,44.30
2023-04-27T17:50:47.763Z,44.40
2023-04-27T17:53:26.653Z,44.60
2023-04-27T17:56:05.875Z,44.80
2023-04-27T17:58:28.107Z,45.00
2023-04-27T18:00:48.505Z,45.20
2023-04-27T18:03:09.208Z,45.20
2023-04-27T18:05:48.302Z,45.30
2023-04-27T18:08:08.680Z,45.30
2023-04-27T18:10:28.924Z,46.20
2023-04-27T18:12:48.898Z,45.60
2023-04-27T18:15:27.959Z,45.80
2023-04-27T18:17:29.790Z,46.00
2023-04-27T18:20:28.056Z,46.10
2023-04-27T18:22:30.660Z,46.20
2023-04-27T18:24:51.232Z,46.30
2023-04-27T18:27:48.902Z,46.40
2023-04-27T18:30:47.149Z,46.60
2023-04-27T18:33:45.051Z,46.70
2023-04-27T18:36:25.600Z,47.40
2023-04-27T18:39:05.062Z,46.90
2023-04-27T18:41:25.423Z,47.00
2023-04-27T18:44:04.196Z,47.30
2023-04-27T18:46:43.670Z,48.10
2023-04-27T18:49:22.762Z,47.50
2023-04-27T18:51:26.248Z,47.60
2023-04-27T18:56:26.517Z,47.70
2023-04-27T18:58:48.636Z,47.80
2023-04-27T19:00:50.535Z,47.80
2023-04-27T19:03:11.418Z,48.00
2023-04-27T19:05:32.124Z,48.00
2023-04-27T19:08:11.322Z,48.00
2023-04-27T19:10:31.859Z,48.30
2023-04-27T19:13:11.395Z,48.30
2023-04-27T19:15:32.027Z,48.30
2023-04-27T19:18:06.610Z,48.30
2023-04-27T19:20:49.607Z,48.40
2023-04-27T19:23:29.475Z,48.60
2023-04-27T19:26:13.282Z,48.60
2023-04-27T19:28:52.479Z,48.60
2023-04-27T19:30:54.377Z,48.90
2023-04-27T19:33:33.313Z,48.90
2023-04-27T19:36:12.482Z,48.90
2023-04-27T19:39:10.702Z,49.20
2023-04-27T19:42:09.099Z,49.20
2023-04-27T19:44:10.949Z,49.80
2023-04-27T19:46:31.571Z,49.30
2023-04-27T19:49:10.967Z,49.30
2023-04-27T19:58:22.482Z,49.70
2023-04-27T20:04:36.609Z,49.50
2023-04-27T20:10:54.872Z,49.90
2023-04-27T20:13:54.794Z,49.90
2023-04-27T20:16:52.790Z,50.10
2023-04-27T20:19:51.502Z,50.20
2023-04-27T20:29:22.822Z,50.30
2023-04-27T20:32:21.486Z,50.50
2023-04-27T20:34:41.967Z,50.40
2023-04-27T20:36:44.309Z,50.50
2023-04-27T20:38:46.342Z,50.60
2023-04-27T20:40:49.547Z,50.60
2023-04-27T20:42:51.830Z,50.50
2023-04-27T20:44:54.879Z,50.60
2023-04-27T20:46:56.863Z,50.60
2023-04-27T20:48:58.600Z,50.70
2023-04-27T20:51:00.730Z,50.60
2023-04-27T20:53:02.474Z,50.70
2023-04-27T20:55:04.714Z,50.60
2023-04-27T20:57:10.949Z,50.80
2023-04-27T20:59:12.728Z,50.80
2023-04-27T21:01:14.450Z,50.70
2023-04-27T21:03:16.725Z,50.80
2023-04-27T21:05:19.037Z,50.80
2023-04-27T21:07:21.072Z,50.70
2023-04-27T21:32:25.976Z,51.20
2023-04-27T21:51:54.027Z,52.00
2023-04-27T21:54:52.540Z,51.50
2023-04-27T21:57:12.925Z,51.60
2023-04-27T22:00:11.895Z,52.00
2023-04-27T22:02:32.683Z,51.50
2023-04-27T22:05:12.770Z,52.10
2023-04-27T22:08:11.998Z,51.40
2023-04-27T22:10:32.923Z,51.60
2023-04-27T22:13:19.212Z,51.90
2023-04-27T22:15:40.513Z,51.70
2023-04-27T22:18:01.273Z,51.90
2023-04-27T22:20:24.823Z,51.90
2023-04-27T22:23:22.565Z,52.60
2023-04-27T22:25:43.316Z,51.70
2023-04-27T22:28:03.684Z,51.80
2023-04-27T22:30:43.019Z,52.00
2023-04-27T22:33:22.427Z,52.50
2023-04-27T22:36:01.516Z,51.90
2023-04-27T22:38:21.673Z,52.00
2023-04-27T22:41:03.030Z,52.10
2023-04-27T22:43:43.036Z,52.10
2023-04-27T22:46:26.003Z,52.00
2023-04-27T22:49:04.744Z,52.10
2023-04-27T22:52:02.843Z,52.20
2023-04-27T22:54:24.152Z,52.10
2023-04-27T22:57:04.469Z,52.10
2023-04-27T22:59:43.635Z,52.10
2023-04-27T23:02:41.839Z,52.90
2023-04-27T23:05:03.876Z,52.20
2023-04-27T23:07:24.819Z,52.40
2023-04-27T23:10:04.808Z,52.40
2023-04-27T23:12:45.078Z,52.30
2023-04-27T23:15:24.772Z,52.40
2023-04-27T23:18:03.501Z,52.40
2023-04-27T23:20:28.692Z,52.40
2023-04-27T23:22:49.982Z,53.00
2023-04-27T23:25:28.988Z,52.50
2023-04-27T23:27:51.843Z,52.40
2023-04-27T23:30:13.121Z,52.60
2023-04-27T23:32:35.299Z,52.40
2023-04-27T23:35:14.278Z,53.10
2023-04-27T23:37:53.397Z,52.50
2023-04-27T23:40:15.470Z,52.50
2023-04-27T23:42:58.703Z,52.60
2023-04-27T23:45:37.910Z,53.20
2023-04-27T23:47:59.536Z,52.60
2023-04-27T23:50:20.570Z,52.50
2023-04-27T23:52:59.400Z,53.20
2023-04-27T23:55:38.549Z,52.50
2023-04-27T23:58:36.621Z,52.60
